createdAt,value
2018-12-31T00:00:44.344Z,93.60
2018-12-31T00:03:11.959Z,93.40
2018-12-31T00:05:39.530Z,93.00
2018-12-31T00:08:07.108Z,93.10
2018-12-31T00:10:34.697Z,92.80
2018-12-31T00:13:02.261Z,92.90
2018-12-31T00:15:30.633Z,93.00
2018-12-31T00:17:58.206Z,93.00
2018-12-31T00:20:25.775Z,93.10
2018-12-31T00:22:54.139Z,92.80
2018-12-31T00:25:21.746Z,92.80
2018-12-31T00:27:49.308Z,92.80
2018-12-31T00:30:16.882Z,93.10
2018-12-31T00:32:44.448Z,92.80
2018-12-31T00:35:12.395Z,92.90
2018-12-31T00:37:39.959Z,93.00
2018-12-31T00:40:07.523Z,93.20
2018-12-31T00:42:35.129Z,93.30
2018-12-31T00:45:03.003Z,93.40
2018-12-31T00:47:30.602Z,93.50
2018-12-31T00:49:58.186Z,93.80
2018-12-31T00:52:25.759Z,93.50
2018-12-31T00:54:53.350Z,93.50
2018-12-31T00:57:21.294Z,93.50
2018-12-31T00:59:48.890Z,93.50
2018-12-31T01:02:16.469Z,93.70
2018-12-31T01:04:44.071Z,93.30
2018-12-31T01:07:11.642Z,93.30
2018-12-31T01:09:39.948Z,93.30
2018-12-31T01:12:07.519Z,93.40
2018-12-31T01:14:35.906Z,93.70
2018-12-31T01:17:04.245Z,93.50
2018-12-31T01:19:31.825Z,93.50
2018-12-31T01:21:59.427Z,93.40
2018-12-31T01:24:27.789Z,93.50
2018-12-31T01:26:56.150Z,93.50
2018-12-31T01:29:23.736Z,93.50
2018-12-31T01:31:51.316Z,93.50
2018-12-31T01:34:18.894Z,93.80
2018-12-31T01:36:46.487Z,93.40
2018-12-31T01:39:14.142Z,93.00
2018-12-31T01:41:41.887Z,93.00
2018-12-31T01:44:09.226Z,93.00
2018-12-31T01:46:36.821Z,93.10
2018-12-31T01:49:04.394Z,93.30
2018-12-31T01:51:31.995Z,93.30
2018-12-31T01:53:59.565Z,93.30
2018-12-31T01:56:27.133Z,93.30
2018-12-31T01:58:54.729Z,93.40
2018-12-31T02:01:22.300Z,93.50
2018-12-31T02:03:49.909Z,93.60
2018-12-31T02:06:17.484Z,93.60
2018-12-31T02:08:45.052Z,93.90
2018-12-31T02:11:12.643Z,93.50
2018-12-31T02:13:40.215Z,93.40
2018-12-31T02:16:08.586Z,93.40
2018-12-31T02:18:36.157Z,93.60
2018-12-31T02:21:03.730Z,93.20
2018-12-31T02:23:31.332Z,93.20
2018-12-31T02:25:58.915Z,93.20
2018-12-31T02:28:26.518Z,93.20
2018-12-31T02:30:54.105Z,93.20
2018-12-31T02:33:21.684Z,93.30
2018-12-31T02:35:49.284Z,93.30
2018-12-31T02:38:16.859Z,93.20
2018-12-31T02:40:44.461Z,93.30
2018-12-31T02:43:12.053Z,93.30
2018-12-31T02:45:39.654Z,93.30
2018-12-31T02:48:07.996Z,93.20
2018-12-31T02:50:35.597Z,92.90
2018-12-31T02:53:03.936Z,92.70
2018-12-31T02:55:31.508Z,92.70
2018-12-31T02:57:59.465Z,92.50
2018-12-31T03:00:27.042Z,92.20
2018-12-31T03:02:54.609Z,92.30
2018-12-31T03:05:22.210Z,92.40
2018-12-31T03:07:50.551Z,92.30
2018-12-31T03:10:18.157Z,92.30
2018-12-31T03:12:45.722Z,92.00
2018-12-31T03:15:13.318Z,92.20
2018-12-31T03:17:40.891Z,92.80
2018-12-31T03:20:08.496Z,92.70
2018-12-31T03:22:36.070Z,92.80
2018-12-31T03:25:04.093Z,93.30
2018-12-31T03:27:31.669Z,92.90
2018-12-31T03:29:59.242Z,92.90
2018-12-31T03:32:40.587Z,93.10
2018-12-31T03:35:08.153Z,92.80
2018-12-31T03:37:36.128Z,92.80
2018-12-31T03:40:03.700Z,92.90
2018-12-31T03:42:31.271Z,92.90
2018-12-31T03:44:59.639Z,93.00
2018-12-31T03:47:27.212Z,92.90
2018-12-31T03:49:54.811Z,92.50
2018-12-31T03:52:22.375Z,92.60
2018-12-31T03:54:49.976Z,92.30
2018-12-31T03:57:17.549Z,92.30
2018-12-31T03:59:45.494Z,92.40
2018-12-31T04:02:13.073Z,92.50
2018-12-31T04:04:40.639Z,92.60
2018-12-31T04:07:08.238Z,92.70
2018-12-31T04:09:35.811Z,92.90
2018-12-31T04:12:03.420Z,92.60
2018-12-31T04:14:30.987Z,92.60
2018-12-31T04:16:58.580Z,92.70
2018-12-31T04:19:26.920Z,92.60
2018-12-31T04:21:54.884Z,92.60
2018-12-31T04:24:22.470Z,92.30
2018-12-31T04:26:50.046Z,92.30
2018-12-31T04:29:17.910Z,92.50
2018-12-31T04:31:46.248Z,92.30
2018-12-31T04:34:13.822Z,92.30
2018-12-31T04:36:41.418Z,92.40
2018-12-31T04:39:09.752Z,92.70
2018-12-31T04:41:37.345Z,92.70
2018-12-31T04:44:04.917Z,92.80
2018-12-31T04:46:33.271Z,93.00
2018-12-31T04:49:00.843Z,92.90
2018-12-31T04:51:28.440Z,92.90
2018-12-31T04:53:56.017Z,93.00
2018-12-31T04:56:23.587Z,93.20
2018-12-31T04:58:51.462Z,93.30
2018-12-31T05:01:19.026Z,93.30
2018-12-31T05:03:46.623Z,93.40
2018-12-31T05:06:14.192Z,93.50
2018-12-31T05:08:42.552Z,93.60
2018-12-31T05:11:10.122Z,93.60
2018-12-31T05:13:37.725Z,93.60
2018-12-31T05:16:05.298Z,93.60
2018-12-31T05:18:33.192Z,93.30
2018-12-31T05:21:00.765Z,93.30
2018-12-31T05:23:28.333Z,93.30
2018-12-31T05:25:55.946Z,93.00
2018-12-31T05:28:23.515Z,93.00
2018-12-31T05:30:51.121Z,92.70
2018-12-31T05:33:18.699Z,92.70
2018-12-31T05:35:46.257Z,92.80
2018-12-31T05:38:14.623Z,92.90
2018-12-31T05:40:42.204Z,92.90
2018-12-31T05:43:10.937Z,91.60
2018-12-31T05:45:38.518Z,91.60
2018-12-31T05:48:06.078Z,91.90
2018-12-31T05:50:33.673Z,92.10
2018-12-31T05:53:02.007Z,92.50
2018-12-31T05:55:29.615Z,92.50
2018-12-31T05:57:57.951Z,92.90
2018-12-31T06:00:25.564Z,92.90
2018-12-31T06:02:53.140Z,93.00
2018-12-31T06:05:20.734Z,93.10
2018-12-31T06:07:48.308Z,93.00
2018-12-31T06:10:15.900Z,93.00
2018-12-31T06:12:44.241Z,93.30
2018-12-31T06:15:11.808Z,93.20
2018-12-31T06:17:39.404Z,93.30
2018-12-31T06:20:07.743Z,93.50
2018-12-31T06:22:35.331Z,93.50
2018-12-31T06:25:02.917Z,93.60
2018-12-31T06:27:31.267Z,93.70
2018-12-31T06:29:58.840Z,93.70
2018-12-31T06:32:27.205Z,93.50
2018-12-31T06:34:54.767Z,93.70
2018-12-31T06:37:22.373Z,93.80
2018-12-31T06:39:49.951Z,93.80
2018-12-31T06:42:17.521Z,93.90
2018-12-31T06:44:45.115Z,93.50
2018-12-31T06:47:12.709Z,93.50
2018-12-31T06:49:40.638Z,93.60
2018-12-31T06:52:08.211Z,93.70
2018-12-31T06:54:35.779Z,93.30
2018-12-31T06:57:03.385Z,93.30
2018-12-31T06:59:30.966Z,93.30
2018-12-31T07:01:58.566Z,93.40
2018-12-31T07:04:26.146Z,93.40
2018-12-31T07:06:55.507Z,93.60
2018-12-31T07:09:23.076Z,93.50
2018-12-31T07:11:50.644Z,93.50
2018-12-31T07:14:18.240Z,93.50
2018-12-31T07:16:45.817Z,93.50
2018-12-31T07:19:13.407Z,93.50
2018-12-31T07:21:40.976Z,93.70
2018-12-31T07:24:08.926Z,93.20
2018-12-31T07:26:36.424Z,93.20
2018-12-31T07:29:03.996Z,93.10
2018-12-31T07:31:32.363Z,93.40
2018-12-31T07:33:59.934Z,93.00
2018-12-31T07:36:28.300Z,93.00
2018-12-31T07:38:55.871Z,93.00
2018-12-31T07:41:23.852Z,93.20
2018-12-31T07:43:52.200Z,93.40
2018-12-31T07:46:19.819Z,93.40
2018-12-31T07:48:47.412Z,93.40
2018-12-31T07:51:14.984Z,93.60
2018-12-31T07:53:42.584Z,93.80
2018-12-31T07:56:10.930Z,93.70
2018-12-31T07:58:38.531Z,93.70
2018-12-31T08:01:07.199Z,93.30
2018-12-31T08:03:35.053Z,93.30
2018-12-31T08:06:02.631Z,93.30
2018-12-31T08:08:30.973Z,93.40
2018-12-31T08:10:58.575Z,93.40
2018-12-31T08:13:26.925Z,93.70
2018-12-31T08:15:54.586Z,93.60
2018-12-31T08:18:22.130Z,93.60
2018-12-31T08:20:49.737Z,93.70
2018-12-31T08:23:17.312Z,93.70
2018-12-31T08:25:44.905Z,93.80
2018-12-31T08:28:12.485Z,93.90
2018-12-31T08:30:40.377Z,93.90
2018-12-31T08:33:07.956Z,94.00
2018-12-31T08:35:36.300Z,94.30
2018-12-31T08:38:03.903Z,94.20
2018-12-31T08:40:32.250Z,93.90
2018-12-31T08:42:59.865Z,93.90
2018-12-31T08:45:27.441Z,93.90
2018-12-31T08:47:55.078Z,94.00
2018-12-31T08:50:22.646Z,94.00
2018-12-31T08:52:50.211Z,94.00
2018-12-31T08:55:17.847Z,94.10
2018-12-31T08:57:45.385Z,94.10
2018-12-31T09:00:12.982Z,94.10
2018-12-31T09:02:41.315Z,94.20
2018-12-31T09:05:08.918Z,94.20
2018-12-31T09:07:37.253Z,94.30
2018-12-31T09:10:04.859Z,94.30
2018-12-31T09:12:32.442Z,94.30
2018-12-31T09:15:00.124Z,94.30
2018-12-31T09:17:27.613Z,94.40
2018-12-31T09:19:55.185Z,94.40
2018-12-31T09:22:22.786Z,94.30
2018-12-31T09:24:50.360Z,94.10
2018-12-31T09:27:18.245Z,94.20
2018-12-31T09:29:45.828Z,94.20
2018-12-31T09:32:13.800Z,94.10
2018-12-31T09:34:41.371Z,94.10
2018-12-31T09:37:08.939Z,94.20
2018-12-31T09:39:36.533Z,94.20
2018-12-31T09:42:04.106Z,94.30
2018-12-31T09:44:32.096Z,94.20
2018-12-31T09:47:00.064Z,94.60
2018-12-31T09:49:27.664Z,94.40
2018-12-31T09:51:55.233Z,94.40
2018-12-31T09:54:23.889Z,94.40
2018-12-31T09:56:51.848Z,94.40
2018-12-31T09:59:19.414Z,94.50
2018-12-31T10:01:47.006Z,94.50
2018-12-31T10:04:14.581Z,94.50
2018-12-31T10:06:42.959Z,94.40
2018-12-31T10:09:12.033Z,94.50
2018-12-31T10:11:39.687Z,94.40
2018-12-31T10:14:07.556Z,94.50
2018-12-31T10:16:35.129Z,94.50
2018-12-31T10:19:02.732Z,94.50
2018-12-31T10:21:30.382Z,94.40
2018-12-31T10:23:57.912Z,94.30
2018-12-31T10:26:25.486Z,94.30
2018-12-31T10:28:53.055Z,94.30
2018-12-31T10:31:21.418Z,94.20
2018-12-31T10:33:48.993Z,94.20
2018-12-31T10:36:17.364Z,94.50
2018-12-31T10:38:51.047Z,94.10
2018-12-31T10:41:13.966Z,94.00
2018-12-31T10:43:41.533Z,94.00
2018-12-31T10:46:09.947Z,94.00
2018-12-31T10:48:37.833Z,93.80
2018-12-31T10:51:05.407Z,93.80
2018-12-31T10:53:34.155Z,93.80
2018-12-31T10:56:01.702Z,94.00
2018-12-31T10:58:29.290Z,93.60
2018-12-31T11:00:57.103Z,93.50
2018-12-31T11:03:25.447Z,93.20
2018-12-31T11:05:53.080Z,93.20
2018-12-31T11:08:20.658Z,93.00
2018-12-31T11:10:48.224Z,92.80
2018-12-31T11:13:15.827Z,92.80
2018-12-31T11:15:43.403Z,93.00
2018-12-31T11:18:10.972Z,92.70
2018-12-31T11:20:38.573Z,92.50
2018-12-31T11:23:06.151Z,92.50
2018-12-31T11:25:34.520Z,92.50
2018-12-31T11:28:02.098Z,92.50
2018-12-31T11:30:31.257Z,92.60
2018-12-31T11:32:58.031Z,92.90
2018-12-31T11:35:26.666Z,92.80
2018-12-31T11:37:54.262Z,92.40
2018-12-31T11:40:21.817Z,92.30
2018-12-31T11:42:49.478Z,92.30
2018-12-31T11:45:17.091Z,92.30
2018-12-31T11:47:45.022Z,92.40
2018-12-31T11:50:12.604Z,92.80
2018-12-31T11:52:40.947Z,92.30
2018-12-31T11:55:08.609Z,92.30
2018-12-31T11:57:36.896Z,91.80
2018-12-31T12:00:04.499Z,91.80
2018-12-31T12:02:32.076Z,91.60
2018-12-31T12:04:59.694Z,91.50
2018-12-31T12:07:27.338Z,91.60
2018-12-31T12:09:54.881Z,91.70
2018-12-31T12:12:23.114Z,91.70
2018-12-31T12:14:51.464Z,91.90
2018-12-31T12:17:19.042Z,91.90
2018-12-31T12:19:46.646Z,92.00
2018-12-31T12:22:14.227Z,92.00
2018-12-31T12:24:41.821Z,91.90
2018-12-31T12:27:09.401Z,91.80
2018-12-31T12:29:37.795Z,91.70
2018-12-31T12:32:06.130Z,91.70
2018-12-31T12:34:33.709Z,91.70
2018-12-31T12:37:01.319Z,91.70
2018-12-31T12:39:28.897Z,91.70
2018-12-31T12:41:56.498Z,91.40
2018-12-31T12:44:25.145Z,91.60
2018-12-31T12:46:52.752Z,91.40
2018-12-31T12:49:20.341Z,91.00
2018-12-31T12:51:48.662Z,91.30
2018-12-31T12:54:16.242Z,90.90
2018-12-31T12:56:43.827Z,91.20
2018-12-31T12:59:12.197Z,91.10
2018-12-31T13:01:39.771Z,91.00
2018-12-31T13:04:08.133Z,91.30
2018-12-31T13:06:36.473Z,91.20
2018-12-31T13:09:04.117Z,91.20
2018-12-31T13:11:31.694Z,91.20
2018-12-31T13:13:59.301Z,91.10
2018-12-31T13:16:27.639Z,91.10
2018-12-31T13:18:55.225Z,91.10
2018-12-31T13:21:22.826Z,91.10
2018-12-31T13:23:50.404Z,91.00
2018-12-31T13:26:17.974Z,90.90
2018-12-31T13:28:45.637Z,90.80
2018-12-31T13:31:13.938Z,90.90
2018-12-31T13:33:44.532Z,90.90
2018-12-31T13:36:12.107Z,90.70
2018-12-31T13:38:39.719Z,90.60
2018-12-31T13:41:08.088Z,90.80
2018-12-31T13:43:36.060Z,90.50
2018-12-31T13:46:03.642Z,90.30
2018-12-31T13:48:31.218Z,90.20
2018-12-31T13:50:58.826Z,90.00
2018-12-31T13:53:26.684Z,89.90
2018-12-31T13:55:54.288Z,89.90
2018-12-31T13:58:22.629Z,89.70
2018-12-31T14:00:50.236Z,89.70
2018-12-31T14:03:19.780Z,90.00
2018-12-31T14:05:46.455Z,89.80
2018-12-31T14:08:14.029Z,90.00
2018-12-31T14:10:41.602Z,90.00
2018-12-31T14:13:09.973Z,90.40
2018-12-31T14:15:38.717Z,90.10
2018-12-31T14:18:06.342Z,90.00
2018-12-31T14:20:34.700Z,90.20
2018-12-31T14:23:02.284Z,90.20
2018-12-31T14:25:30.664Z,90.30
2018-12-31T14:27:59.012Z,90.30
2018-12-31T14:30:26.632Z,90.30
2018-12-31T14:32:54.217Z,90.30
2018-12-31T14:35:21.788Z,90.40
2018-12-31T14:37:49.615Z,90.40
2018-12-31T14:40:17.183Z,90.40
2018-12-31T14:42:44.765Z,90.40
2018-12-31T14:45:12.366Z,90.30
2018-12-31T14:47:39.939Z,90.10
2018-12-31T14:50:08.885Z,90.00
2018-12-31T14:52:36.468Z,90.10
2018-12-31T14:55:04.070Z,90.00
2018-12-31T14:57:31.679Z,90.00
2018-12-31T14:59:59.629Z,89.90
2018-12-31T15:02:27.197Z,89.70
2018-12-31T15:04:54.785Z,89.70
2018-12-31T15:07:22.387Z,89.70
2018-12-31T15:09:49.983Z,89.60
2018-12-31T15:12:17.591Z,88.70
2018-12-31T15:14:45.936Z,88.00
2018-12-31T15:17:13.955Z,88.00
2018-12-31T15:19:41.494Z,87.90
2018-12-31T15:22:09.072Z,87.90
2018-12-31T15:24:37.457Z,88.20
2018-12-31T15:27:05.021Z,88.20
2018-12-31T15:29:33.685Z,88.50
2018-12-31T15:32:01.305Z,88.40
2018-12-31T15:34:29.615Z,88.70
2018-12-31T15:36:57.232Z,88.70
2018-12-31T15:39:24.809Z,88.80
2018-12-31T15:41:52.428Z,89.00
2018-12-31T15:44:20.771Z,88.60
2018-12-31T15:46:48.351Z,88.50
2018-12-31T15:49:15.965Z,88.70
2018-12-31T15:51:43.539Z,89.00
2018-12-31T15:54:11.134Z,89.30
2018-12-31T15:56:38.926Z,89.30
2018-12-31T15:59:07.297Z,87.90
2018-12-31T16:01:35.643Z,88.90
2018-12-31T16:04:03.282Z,88.10
2018-12-31T16:06:30.864Z,88.20
2018-12-31T16:08:58.737Z,88.30
2018-12-31T16:11:26.334Z,88.00
2018-12-31T16:13:54.682Z,86.70
2018-12-31T16:16:22.288Z,86.70
2018-12-31T16:18:49.861Z,87.20
2018-12-31T16:21:17.494Z,88.00
2018-12-31T16:23:45.073Z,88.70
2018-12-31T16:26:12.659Z,89.20
2018-12-31T16:28:55.924Z,89.30
2018-12-31T16:31:26.265Z,89.10
2018-12-31T16:33:53.887Z,90.20
2018-12-31T16:36:21.468Z,90.00
2018-12-31T16:38:49.044Z,90.10
2018-12-31T16:41:16.648Z,90.30
2018-12-31T16:43:44.260Z,90.70
2018-12-31T16:46:13.251Z,90.40
2018-12-31T16:48:39.767Z,90.40
2018-12-31T16:51:07.343Z,90.50
2018-12-31T16:53:34.953Z,90.60
2018-12-31T16:56:02.542Z,91.00
2018-12-31T16:58:30.155Z,90.80
2018-12-31T17:00:57.761Z,90.90
2018-12-31T17:03:25.398Z,91.00
2018-12-31T17:05:52.940Z,91.00
2018-12-31T17:08:20.930Z,91.10
2018-12-31T17:10:49.276Z,91.20
2018-12-31T17:13:16.909Z,91.20
2018-12-31T17:15:44.493Z,91.20
2018-12-31T17:18:12.075Z,91.40
2018-12-31T17:20:39.684Z,91.00
2018-12-31T17:23:07.273Z,90.10
2018-12-31T17:25:34.883Z,89.40
2018-12-31T17:28:03.229Z,89.60
2018-12-31T17:30:30.924Z,89.60
2018-12-31T17:32:58.494Z,90.00
2018-12-31T17:35:26.414Z,90.10
2018-12-31T17:37:53.992Z,90.20
2018-12-31T17:40:21.574Z,90.30
2018-12-31T17:42:50.733Z,90.40
2018-12-31T17:45:22.977Z,90.40
2018-12-31T17:47:46.165Z,90.50
2018-12-31T17:50:13.779Z,90.60
2018-12-31T17:52:41.361Z,90.70
2018-12-31T17:55:08.924Z,90.80
2018-12-31T17:57:39.780Z,91.00
2018-12-31T18:00:07.359Z,91.20
2018-12-31T18:02:34.932Z,91.30
2018-12-31T18:05:02.535Z,91.30
2018-12-31T18:07:30.118Z,91.70
2018-12-31T18:09:57.986Z,91.30
2018-12-31T18:12:25.559Z,91.20
2018-12-31T18:14:53.129Z,91.20
2018-12-31T18:17:20.756Z,91.20
2018-12-31T18:19:48.309Z,91.30
2018-12-31T18:22:15.918Z,91.70
2018-12-31T18:24:43.491Z,91.30
2018-12-31T18:27:11.130Z,91.30
2018-12-31T18:29:38.769Z,91.40
2018-12-31T18:32:06.268Z,91.40
2018-12-31T18:34:33.902Z,91.50
2018-12-31T18:37:01.501Z,91.50
2018-12-31T18:39:29.074Z,91.70
2018-12-31T18:41:57.442Z,91.50
2018-12-31T18:44:25.015Z,91.40
2018-12-31T18:46:53.374Z,91.50
2018-12-31T18:49:20.955Z,91.50
2018-12-31T18:51:49.321Z,91.80
2018-12-31T18:54:16.892Z,91.60
2018-12-31T18:56:45.030Z,91.70
2018-12-31T18:59:12.608Z,91.70
2018-12-31T19:01:40.183Z,91.70
2018-12-31T19:04:07.796Z,91.80
2018-12-31T19:06:35.364Z,92.10
2018-12-31T19:09:03.469Z,91.70
2018-12-31T19:11:31.044Z,91.80
2018-12-31T19:13:58.616Z,91.90
2018-12-31T19:16:26.983Z,92.30
2018-12-31T19:18:54.564Z,92.10
2018-12-31T19:21:22.932Z,92.20
2018-12-31T19:23:51.267Z,92.10
2018-12-31T19:26:18.847Z,92.30
2018-12-31T19:28:46.445Z,92.30
2018-12-31T19:31:14.022Z,92.30
2018-12-31T19:33:41.623Z,92.60
2018-12-31T19:36:09.201Z,92.30
2018-12-31T19:38:36.805Z,92.40
2018-12-31T19:41:04.376Z,92.40
2018-12-31T19:43:31.980Z,92.40
2018-12-31T19:45:59.590Z,92.50
2018-12-31T19:48:27.151Z,92.50
2018-12-31T19:50:54.737Z,92.50
2018-12-31T19:53:22.341Z,92.60
2018-12-31T19:55:49.905Z,92.50
2018-12-31T19:58:18.564Z,92.60
2018-12-31T20:00:45.867Z,92.70
2018-12-31T20:03:13.424Z,92.70
2018-12-31T20:05:41.823Z,92.70
2018-12-31T20:08:09.397Z,92.70
2018-12-31T20:10:37.003Z,92.70
2018-12-31T20:13:04.579Z,92.70
2018-12-31T20:15:32.531Z,92.80
2018-12-31T20:18:00.104Z,92.70
2018-12-31T20:20:27.683Z,92.40
2018-12-31T20:22:56.061Z,92.40
2018-12-31T20:25:23.638Z,92.40
2018-12-31T20:27:51.235Z,92.40
2018-12-31T20:30:18.809Z,92.50
2018-12-31T20:32:46.414Z,92.50
2018-12-31T20:35:14.758Z,92.70
2018-12-31T20:37:42.403Z,92.70
2018-12-31T20:40:09.974Z,92.30
2018-12-31T20:42:37.540Z,92.30
2018-12-31T20:45:05.122Z,92.30
2018-12-31T20:47:33.076Z,92.40
2018-12-31T20:50:00.715Z,92.50
2018-12-31T20:52:28.215Z,92.60
2018-12-31T20:54:55.818Z,92.70
2018-12-31T20:57:23.397Z,92.90
2018-12-31T20:59:50.989Z,92.50
2018-12-31T21:02:18.561Z,92.50
2018-12-31T21:04:46.157Z,92.50
2018-12-31T21:07:13.728Z,92.20
2018-12-31T21:09:41.928Z,92.30
2018-12-31T21:12:09.504Z,92.30
2018-12-31T21:14:37.118Z,92.40
2018-12-31T21:17:04.694Z,92.50
2018-12-31T21:19:32.278Z,92.60
2018-12-31T21:21:59.882Z,92.60
2018-12-31T21:24:28.222Z,92.90
2018-12-31T21:26:56.210Z,92.90
2018-12-31T21:29:23.789Z,92.90
2018-12-31T21:31:52.148Z,92.70
2018-12-31T21:34:19.766Z,92.70
2018-12-31T21:36:47.340Z,92.40
2018-12-31T21:39:14.940Z,92.30
2018-12-31T21:41:42.511Z,92.40
2018-12-31T21:44:10.892Z,92.70
2018-12-31T21:46:39.245Z,92.50
2018-12-31T21:49:07.118Z,92.30
2018-12-31T21:51:34.701Z,92.20
2018-12-31T21:54:02.283Z,92.20
2018-12-31T21:56:29.889Z,92.10
2018-12-31T21:58:57.471Z,92.00
2018-12-31T22:01:25.072Z,92.20
2018-12-31T22:03:52.673Z,92.40
2018-12-31T22:06:20.273Z,92.40
2018-12-31T22:08:48.647Z,92.20
2018-12-31T22:11:16.224Z,92.50
2018-12-31T22:13:43.810Z,92.40
2018-12-31T22:16:11.410Z,92.50
2018-12-31T22:18:38.982Z,92.70
2018-12-31T22:21:06.584Z,92.90
2018-12-31T22:23:34.161Z,93.00
2018-12-31T22:26:01.769Z,93.00
2018-12-31T22:28:29.340Z,93.10
2018-12-31T22:30:56.983Z,93.10
2018-12-31T22:33:25.283Z,93.10
2018-12-31T22:35:52.861Z,93.10
2018-12-31T22:38:21.285Z,93.20
2018-12-31T22:40:48.862Z,93.20
2018-12-31T22:43:16.443Z,93.20
2018-12-31T22:45:44.054Z,93.30
2018-12-31T22:48:11.630Z,93.40
2018-12-31T22:50:39.243Z,93.40
2018-12-31T22:53:07.596Z,93.40
2018-12-31T22:55:35.173Z,93.40
2018-12-31T22:58:02.776Z,93.40
2018-12-31T23:00:30.352Z,93.40
2018-12-31T23:02:57.951Z,93.00
2018-12-31T23:05:25.548Z,92.90
2018-12-31T23:07:53.477Z,92.90
2018-12-31T23:10:21.054Z,93.00
2018-12-31T23:12:48.887Z,92.60
2018-12-31T23:15:16.495Z,92.60
2018-12-31T23:17:44.843Z,92.70
2018-12-31T23:20:12.442Z,92.70
2018-12-31T23:22:40.978Z,92.60
2018-12-31T23:25:08.572Z,92.60
2018-12-31T23:27:36.182Z,92.40
2018-12-31T23:30:03.788Z,92.20
2018-12-31T23:32:31.370Z,92.00
2018-12-31T23:34:59.005Z,92.10
2018-12-31T23:37:26.571Z,92.40
2018-12-31T23:39:54.174Z,92.50
2018-12-31T23:42:21.780Z,92.70
2018-12-31T23:44:53.121Z,92.90
2018-12-31T23:47:16.988Z,92.50
2018-12-31T23:49:44.572Z,92.50
2018-12-31T23:52:12.188Z,92.60
2018-12-31T23:54:39.786Z,92.70
2018-12-31T23:57:07.361Z,92.80
2018-12-31T23:59:34.990Z,92.90
